createdAt,value
2016-09-29T00:00:13.572Z,0
2016-09-29T00:01:13.711Z,0
2016-09-29T00:02:13.315Z,0
2016-09-29T00:03:13.342Z,0
2016-09-29T00:04:13.669Z,0
2016-09-29T00:05:13.694Z,0
2016-09-29T00:06:13.402Z,0
2016-09-29T00:07:13.425Z,0
2016-09-29T00:08:13.763Z,0
2016-09-29T00:09:13.764Z,0
2016-09-29T00:10:13.593Z,0
2016-09-29T00:11:13.844Z,0
2016-09-29T00:12:13.262Z,0
2016-09-29T00:13:13.982Z,0
2016-09-29T00:14:13.983Z,0
2016-09-29T00:15:13.683Z,0
2016-09-29T00:16:13.631Z,0
2016-09-29T00:17:13.742Z,0
2016-09-29T00:18:13.404Z,0
2016-09-29T00:19:13.375Z,0
2016-09-29T00:20:13.814Z,0
2016-09-29T00:21:13.738Z,0
2016-09-29T00:22:13.754Z,0
2016-09-29T00:23:13.816Z,0
2016-09-29T00:24:13.809Z,0
2016-09-29T00:25:13.825Z,0
2016-09-29T00:26:13.951Z,0
2016-09-29T00:27:13.859Z,0
2016-09-29T00:28:13.986Z,0
2016-09-29T00:29:13.916Z,0
2016-09-29T00:30:14.232Z,0
2016-09-29T00:31:14.253Z,0
2016-09-29T00:32:14.271Z,0
2016-09-29T00:33:14.315Z,0
2016-09-29T00:34:14.024Z,0
2016-09-29T00:35:14.029Z,0
2016-09-29T00:36:14.061Z,0
2016-09-29T00:37:14.227Z,0
2016-09-29T00:38:14.101Z,0
2016-09-29T00:39:14.457Z,0
2016-09-29T00:40:14.159Z,0
2016-09-29T00:41:14.483Z,0
2016-09-29T00:42:14.521Z,0
2016-09-29T00:43:14.225Z,0
2016-09-29T00:44:14.250Z,0
2016-09-29T00:45:14.572Z,0
2016-09-29T00:46:14.646Z,0
2016-09-29T00:47:14.744Z,0
2016-09-29T00:48:14.335Z,0
2016-09-29T00:49:14.381Z,0
2016-09-29T00:50:14.067Z,0
2016-09-29T00:51:14.784Z,0
2016-09-29T00:52:14.102Z,0
2016-09-29T00:53:14.440Z,0
2016-09-29T00:54:14.785Z,0
2016-09-29T00:55:14.492Z,0
2016-09-29T00:56:14.831Z,0
2016-09-29T00:57:14.225Z,0
2016-09-29T00:58:14.864Z,0
2016-09-29T00:59:15.004Z,0
2016-09-29T01:00:14.931Z,0
2016-09-29T01:01:14.634Z,0
2016-09-29T01:02:15.097Z,0
2016-09-29T01:03:15.054Z,0
2016-09-29T01:04:15.016Z,0
2016-09-29T01:05:14.089Z,0
2016-09-29T01:06:15.064Z,0
2016-09-29T01:07:14.786Z,0
2016-09-29T01:08:14.839Z,0
2016-09-29T01:09:15.163Z,0
2016-09-29T01:10:14.530Z,0
2016-09-29T01:11:14.900Z,0
2016-09-29T01:12:15.221Z,0
2016-09-29T01:13:14.952Z,0
2016-09-29T01:14:14.996Z,0
2016-09-29T01:15:14.965Z,0
2016-09-29T01:16:14.970Z,0
2016-09-29T01:17:15.306Z,0
2016-09-29T01:18:15.321Z,0
2016-09-29T01:19:15.043Z,0
2016-09-29T01:20:15.372Z,0
2016-09-29T01:21:14.463Z,0
2016-09-29T01:22:15.421Z,0
2016-09-29T01:23:15.571Z,0
2016-09-29T01:24:15.164Z,0
2016-09-29T01:25:15.173Z,0
2016-09-29T01:26:15.524Z,0
2016-09-29T01:27:15.216Z,0
2016-09-29T01:28:15.253Z,0
2016-09-29T01:29:15.593Z,0
2016-09-29T01:30:15.295Z,0
2016-09-29T01:31:15.613Z,0
2016-09-29T01:32:14.767Z,0
2016-09-29T01:33:15.381Z,0
2016-09-29T01:34:15.371Z,0
2016-09-29T01:35:15.485Z,0
2016-09-29T01:36:15.863Z,0
2016-09-29T01:37:15.450Z,0
2016-09-29T01:38:15.879Z,0
2016-09-29T01:39:15.490Z,0
2016-09-29T01:40:15.819Z,0
2016-09-29T01:41:15.841Z,0
2016-09-29T01:42:15.692Z,0
2016-09-29T01:43:15.591Z,0
2016-09-29T01:44:15.911Z,0
2016-09-29T01:45:15.934Z,0
2016-09-29T01:46:16.071Z,0
2016-09-29T01:47:15.139Z,0
2016-09-29T01:48:15.402Z,0
2016-09-29T01:49:16.135Z,0
2016-09-29T01:50:16.123Z,0
2016-09-29T01:51:15.782Z,0
2016-09-29T01:52:15.780Z,0
2016-09-29T01:53:15.812Z,0
2016-09-29T01:54:16.131Z,0
2016-09-29T01:55:16.160Z,0
2016-09-29T01:56:16.193Z,0
2016-09-29T01:57:15.902Z,0
2016-09-29T01:58:15.972Z,0
2016-09-29T01:59:16.258Z,0
2016-09-29T02:00:15.772Z,0
2016-09-29T02:01:16.293Z,0
2016-09-29T02:02:15.726Z,0
2016-09-29T02:03:15.722Z,0
2016-09-29T02:04:16.362Z,0
2016-09-29T02:05:16.403Z,0
2016-09-29T02:06:16.413Z,0
2016-09-29T02:07:16.441Z,0
2016-09-29T02:08:16.141Z,0
2016-09-29T02:09:16.181Z,0
2016-09-29T02:10:16.195Z,0
2016-09-29T02:11:16.209Z,0
2016-09-29T02:12:16.601Z,0
2016-09-29T02:13:16.678Z,0
2016-09-29T02:14:15.660Z,0
2016-09-29T02:15:15.692Z,0
2016-09-29T02:16:16.333Z,0
2016-09-29T02:17:16.347Z,0
2016-09-29T02:18:16.683Z,0
2016-09-29T02:19:16.392Z,0
2016-09-29T02:20:16.113Z,0
2016-09-29T02:21:16.433Z,0
2016-09-29T02:22:16.144Z,0
2016-09-29T02:23:16.542Z,0
2016-09-29T02:24:16.513Z,0
2016-09-29T02:25:16.552Z,0
2016-09-29T02:26:16.552Z,0
2016-09-29T02:27:16.897Z,0
2016-09-29T02:28:16.665Z,0
2016-09-29T02:29:16.925Z,0
2016-09-29T02:30:16.336Z,0
2016-09-29T02:31:16.962Z,0
2016-09-29T02:32:16.990Z,0
2016-09-29T02:33:16.718Z,0
2016-09-29T02:34:16.430Z,0
2016-09-29T02:35:16.759Z,0
2016-09-29T02:36:16.492Z,0
2016-09-29T02:37:16.811Z,0
2016-09-29T02:38:16.830Z,0
2016-09-29T02:39:17.205Z,0
2016-09-29T02:40:16.871Z,0
2016-09-29T02:41:16.591Z,0
2016-09-29T02:42:16.923Z,0
2016-09-29T02:43:16.670Z,0
2016-09-29T02:44:17.052Z,0
2016-09-29T02:45:17.086Z,0
2016-09-29T02:46:17.337Z,0
2016-09-29T02:47:16.754Z,0
2016-09-29T02:48:17.405Z,0
2016-09-29T02:49:17.081Z,0
2016-09-29T02:50:17.422Z,0
2016-09-29T02:51:17.119Z,0
2016-09-29T02:52:17.148Z,0
2016-09-29T02:53:17.476Z,0
2016-09-29T02:54:17.239Z,0
2016-09-29T02:55:16.916Z,0
2016-09-29T02:56:17.579Z,0
2016-09-29T02:57:17.658Z,0
2016-09-29T02:58:17.323Z,0
2016-09-29T02:59:17.297Z,0
2016-09-29T03:00:17.362Z,0
2016-09-29T03:01:17.667Z,0
2016-09-29T03:02:17.611Z,0
2016-09-29T03:03:17.981Z,0
2016-09-29T03:04:17.747Z,0
2016-09-29T03:05:17.451Z,0
2016-09-29T03:06:17.464Z,0
2016-09-29T03:07:17.927Z,0
2016-09-29T03:08:17.510Z,0
2016-09-29T03:09:17.891Z,0
2016-09-29T03:10:43.353Z,0
2016-09-29T03:11:17.946Z,0
2016-09-29T03:12:17.950Z,0
2016-09-29T03:13:17.938Z,0
2016-09-29T03:14:17.967Z,0
2016-09-29T03:15:17.471Z,0
2016-09-29T03:16:17.691Z,0
2016-09-29T03:17:17.858Z,0
2016-09-29T03:18:18.048Z,0
2016-09-29T03:19:17.577Z,0
2016-09-29T03:20:18.351Z,0
2016-09-29T03:21:18.290Z,0
2016-09-29T03:22:17.629Z,0
2016-09-29T03:23:18.315Z,0
2016-09-29T03:24:18.180Z,0
2016-09-29T03:25:18.130Z,0
2016-09-29T03:26:18.121Z,0
2016-09-29T03:27:18.341Z,0
2016-09-29T03:28:18.071Z,0
2016-09-29T03:29:18.443Z,0
2016-09-29T03:30:18.371Z,0
2016-09-29T03:31:18.102Z,0
2016-09-29T03:32:18.215Z,0
2016-09-29T03:33:18.450Z,0
2016-09-29T03:34:18.422Z,0
2016-09-29T03:35:18.457Z,0
2016-09-29T03:36:18.459Z,0
2016-09-29T03:37:18.490Z,0
2016-09-29T03:38:18.709Z,0
2016-09-29T03:39:18.516Z,0
2016-09-29T03:40:18.497Z,0
2016-09-29T03:41:18.629Z,0
2016-09-29T03:42:18.299Z,0
2016-09-29T03:43:18.014Z,0
2016-09-29T03:44:18.143Z,0
2016-09-29T03:45:18.730Z,0
2016-09-29T03:46:18.052Z,0
2016-09-29T03:47:18.450Z,0
2016-09-29T03:48:18.725Z,0
2016-09-29T03:49:18.540Z,0
2016-09-29T03:50:18.772Z,0
2016-09-29T03:51:18.182Z,0
2016-09-29T03:52:18.561Z,0
2016-09-29T03:53:18.227Z,0
2016-09-29T03:54:18.264Z,0
2016-09-29T03:55:18.902Z,0
2016-09-29T03:56:18.281Z,0
2016-09-29T03:57:18.611Z,0
2016-09-29T03:58:18.637Z,0
2016-09-29T03:59:51.067Z,0
2016-09-29T04:00:19.014Z,0
2016-09-29T04:01:18.795Z,0
2016-09-29T04:02:19.054Z,0
2016-09-29T04:03:19.214Z,0
2016-09-29T04:04:19.091Z,0
2016-09-29T04:05:19.120Z,0
2016-09-29T04:06:18.524Z,0
2016-09-29T04:07:18.865Z,0
2016-09-29T04:08:18.934Z,0
2016-09-29T04:09:19.295Z,0
2016-09-29T04:10:18.921Z,0
2016-09-29T04:11:19.264Z,0
2016-09-29T04:12:18.987Z,0
2016-09-29T04:13:18.983Z,0
2016-09-29T04:14:19.332Z,0
2016-09-29T04:15:19.131Z,0
2016-09-29T04:16:19.092Z,0
2016-09-29T04:17:19.522Z,0
2016-09-29T04:18:19.175Z,0
2016-09-29T04:19:19.125Z,0
2016-09-29T04:20:19.520Z,0
2016-09-29T04:21:19.492Z,0
2016-09-29T04:22:19.503Z,0
2016-09-29T04:23:19.422Z,0
2016-09-29T04:24:19.551Z,0
2016-09-29T04:25:19.364Z,0
2016-09-29T04:26:19.603Z,0
2016-09-29T04:27:19.655Z,0
2016-09-29T04:28:19.702Z,0
2016-09-29T04:29:19.467Z,0
2016-09-29T04:30:19.394Z,0
2016-09-29T04:31:19.711Z,0
2016-09-29T04:32:19.421Z,0
2016-09-29T04:33:19.840Z,0
2016-09-29T04:34:19.810Z,0
2016-09-29T04:35:19.560Z,0
2016-09-29T04:36:19.837Z,0
2016-09-29T04:37:19.857Z,0
2016-09-29T04:38:19.576Z,0
2016-09-29T04:39:19.892Z,0
2016-09-29T04:40:19.300Z,0
2016-09-29T04:41:19.136Z,0
2016-09-29T04:42:20.050Z,0
2016-09-29T04:43:19.789Z,0
2016-09-29T04:44:20.068Z,0
2016-09-29T04:45:20.090Z,0
2016-09-29T04:46:19.761Z,0
2016-09-29T04:47:20.081Z,0
2016-09-29T04:48:20.102Z,0
2016-09-29T04:49:19.814Z,0
2016-09-29T04:50:19.850Z,0
2016-09-29T04:51:20.177Z,48
2016-09-29T04:52:20.291Z,52
2016-09-29T04:53:20.237Z,4
2016-09-29T04:54:19.958Z,4
2016-09-29T04:55:20.349Z,4
2016-09-29T04:56:20.348Z,0
2016-09-29T04:57:20.057Z,4
2016-09-29T04:58:20.354Z,4
2016-09-29T04:59:20.362Z,4
2016-09-29T05:00:20.408Z,4
2016-09-29T05:01:20.100Z,4
2016-09-29T05:02:20.430Z,8
2016-09-29T05:03:20.134Z,12
2016-09-29T05:04:19.864Z,12
2016-09-29T05:05:20.508Z,12
2016-09-29T05:06:20.021Z,20
2016-09-29T05:07:20.234Z,20
2016-09-29T05:08:20.625Z,20
2016-09-29T05:09:20.287Z,24
2016-09-29T05:10:20.308Z,28
2016-09-29T05:11:20.679Z,32
2016-09-29T05:12:20.357Z,40
2016-09-29T05:13:20.697Z,40
2016-09-29T05:14:20.714Z,48
2016-09-29T05:15:20.766Z,52
2016-09-29T05:16:20.770Z,56
2016-09-29T05:17:20.508Z,60
2016-09-29T05:18:20.866Z,68
2016-09-29T05:19:20.829Z,72
2016-09-29T05:20:21.071Z,84
2016-09-29T05:21:20.891Z,88
2016-09-29T05:22:20.568Z,92
2016-09-29T05:23:20.934Z,100
2016-09-29T05:24:20.642Z,108
2016-09-29T05:25:20.995Z,116
2016-09-29T05:26:20.704Z,120
2016-09-29T05:27:21.020Z,132
2016-09-29T05:28:20.748Z,144
2016-09-29T05:29:21.283Z,160
2016-09-29T05:30:20.484Z,172
2016-09-29T05:31:21.125Z,184
2016-09-29T05:32:21.158Z,200
2016-09-29T05:33:21.163Z,224
2016-09-29T05:34:20.859Z,252
2016-09-29T05:35:20.916Z,284
2016-09-29T05:36:20.916Z,316
2016-09-29T05:37:21.090Z,360
2016-09-29T05:38:21.269Z,400
2016-09-29T05:39:20.990Z,428
2016-09-29T05:40:21.029Z,444
2016-09-29T05:41:21.360Z,456
2016-09-29T05:42:20.748Z,476
2016-09-29T05:43:21.329Z,504
2016-09-29T05:44:53.428Z,536
2016-09-29T05:45:21.774Z,544
2016-09-29T05:46:21.429Z,560
2016-09-29T05:47:21.437Z,588
2016-09-29T05:48:21.905Z,628
2016-09-29T05:49:21.648Z,680
2016-09-29T05:50:21.039Z,720
2016-09-29T05:51:21.724Z,764
2016-09-29T05:52:21.393Z,804
2016-09-29T05:53:21.118Z,844
2016-09-29T05:54:21.385Z,888
2016-09-29T05:55:21.366Z,952
2016-09-29T05:56:21.699Z,996
2016-09-29T05:57:21.547Z,1032
2016-09-29T05:58:21.437Z,1080
2016-09-29T05:59:21.146Z,1124
2016-09-29T06:00:21.476Z,1180
2016-09-29T06:01:21.519Z,1220
2016-09-29T06:02:21.592Z,1260
2016-09-29T06:03:21.894Z,1304
2016-09-29T06:04:21.577Z,1372
2016-09-29T06:05:21.323Z,1448
2016-09-29T06:06:22.434Z,1556
2016-09-29T06:07:21.729Z,1644
2016-09-29T06:08:22.015Z,1692
2016-09-29T06:09:21.753Z,1700
2016-09-29T06:10:21.731Z,1696
2016-09-29T06:11:21.710Z,1712
2016-09-29T06:12:22.053Z,1772
2016-09-29T06:13:21.913Z,1864
2016-09-29T06:14:22.199Z,1980
2016-09-29T06:15:22.119Z,2092
2016-09-29T06:16:21.877Z,2184
2016-09-29T06:17:21.979Z,2252
2016-09-29T06:18:21.942Z,2260
2016-09-29T06:19:22.253Z,2224
2016-09-29T06:20:22.278Z,2196
2016-09-29T06:21:21.747Z,2172
2016-09-29T06:22:22.286Z,2184
2016-09-29T06:23:22.314Z,2284
2016-09-29T06:24:21.726Z,2452
2016-09-29T06:25:22.058Z,2624
2016-09-29T06:26:22.099Z,2768
2016-09-29T06:27:22.109Z,2868
2016-09-29T06:28:22.173Z,2940
2016-09-29T06:29:21.834Z,3092
2016-09-29T06:30:22.498Z,3260
2016-09-29T06:31:22.195Z,3392
2016-09-29T06:32:22.206Z,3444
2016-09-29T06:33:21.916Z,3512
2016-09-29T06:34:22.264Z,3844
2016-09-29T06:35:22.288Z,3644
2016-09-29T06:36:22.627Z,3692
2016-09-29T06:37:22.644Z,4116
2016-09-29T06:38:22.829Z,3400
2016-09-29T06:39:22.364Z,3796
2016-09-29T06:40:22.145Z,5880
2016-09-29T06:41:22.428Z,3888
2016-09-29T06:42:22.444Z,3920
2016-09-29T06:43:22.475Z,4156
2016-09-29T06:44:22.502Z,3980
2016-09-29T06:45:22.840Z,3944
2016-09-29T06:46:22.554Z,3948
2016-09-29T06:47:22.255Z,4120
2016-09-29T06:48:22.917Z,3932
2016-09-29T06:49:22.614Z,3832
2016-09-29T06:50:22.649Z,3820
2016-09-29T06:51:22.676Z,3836
2016-09-29T06:52:22.688Z,3836
2016-09-29T06:53:23.232Z,3860
2016-09-29T06:54:23.048Z,3920
2016-09-29T06:55:23.072Z,4036
2016-09-29T06:56:22.891Z,4088
2016-09-29T06:57:22.816Z,4060
2016-09-29T06:58:22.853Z,4028
2016-09-29T06:59:22.861Z,4108
2016-09-29T07:00:22.568Z,4324
2016-09-29T07:01:22.587Z,4352
2016-09-29T07:02:23.354Z,4584
2016-09-29T07:03:22.643Z,4724
2016-09-29T07:04:23.003Z,4736
2016-09-29T07:05:23.320Z,4648
2016-09-29T07:06:23.085Z,4592
2016-09-29T07:07:23.076Z,4600
2016-09-29T07:08:22.761Z,4652
2016-09-29T07:09:23.156Z,4780
2016-09-29T07:10:23.202Z,4992
2016-09-29T07:11:23.450Z,5208
2016-09-29T07:12:23.537Z,5376
2016-09-29T07:13:23.190Z,5460
2016-09-29T07:14:23.528Z,5344
2016-09-29T07:15:23.308Z,5280
2016-09-29T07:16:23.271Z,5276
2016-09-29T07:17:23.607Z,5368
2016-09-29T07:18:23.627Z,5516
2016-09-29T07:19:23.057Z,5524
2016-09-29T07:20:23.066Z,5596
2016-09-29T07:21:23.691Z,5832
2016-09-29T07:22:23.767Z,6020
2016-09-29T07:23:23.491Z,6048
2016-09-29T07:24:23.766Z,6288
2016-09-29T07:25:23.237Z,6468
2016-09-29T07:26:23.193Z,6672
2016-09-29T07:27:23.228Z,6632
2016-09-29T07:28:23.858Z,6564
2016-09-29T07:29:23.880Z,6408
2016-09-29T07:30:23.399Z,6364
2016-09-29T07:31:23.959Z,6420
2016-09-29T07:32:24.078Z,6468
2016-09-29T07:33:23.749Z,6468
2016-09-29T07:34:23.708Z,6440
2016-09-29T07:35:24.088Z,6312
2016-09-29T07:36:24.081Z,6188
2016-09-29T07:37:24.093Z,6112
2016-09-29T07:38:23.809Z,6160
2016-09-29T07:39:24.133Z,6344
2016-09-29T07:40:24.135Z,6624
2016-09-29T07:41:23.977Z,6900
2016-09-29T07:42:24.220Z,7132
2016-09-29T07:43:24.343Z,7276
2016-09-29T07:44:24.058Z,7276
2016-09-29T07:45:23.665Z,7200
2016-09-29T07:46:24.308Z,7064
2016-09-29T07:47:23.695Z,6956
2016-09-29T07:48:24.103Z,6920
2016-09-29T07:49:24.409Z,7008
2016-09-29T07:50:24.389Z,7220
2016-09-29T07:51:24.115Z,7484
2016-09-29T07:52:24.140Z,7620
2016-09-29T07:53:23.898Z,7632
2016-09-29T07:54:23.880Z,7772
2016-09-29T07:55:24.219Z,8056
2016-09-29T07:56:24.534Z,8408
2016-09-29T07:57:23.971Z,8804
2016-09-29T07:58:24.291Z,9144
2016-09-29T07:59:24.312Z,9312
2016-09-29T08:00:24.020Z,9412
2016-09-29T08:01:24.381Z,9464
2016-09-29T08:02:24.711Z,9588
2016-09-29T08:03:24.783Z,9688
2016-09-29T08:04:24.749Z,9852
2016-09-29T08:05:24.757Z,10056
2016-09-29T08:06:24.856Z,10168
2016-09-29T08:07:24.522Z,10128
2016-09-29T08:08:24.631Z,10068
2016-09-29T08:09:24.883Z,9952
2016-09-29T08:10:24.593Z,9852
2016-09-29T08:11:24.613Z,9832
2016-09-29T08:12:24.644Z,9616
2016-09-29T08:13:25.131Z,9452
2016-09-29T08:14:25.009Z,9412
2016-09-29T08:15:25.298Z,9484
2016-09-29T08:16:24.750Z,9628
2016-09-29T08:17:25.139Z,9760
2016-09-29T08:18:25.399Z,9812
2016-09-29T08:19:24.813Z,9860
2016-09-29T08:20:24.837Z,9556
2016-09-29T08:21:25.176Z,9444
2016-09-29T08:22:25.361Z,9380
2016-09-29T08:23:24.903Z,9112
2016-09-29T08:24:24.957Z,8776
2016-09-29T08:25:25.280Z,8616
2016-09-29T08:26:25.310Z,8724
2016-09-29T08:27:25.366Z,8392
2016-09-29T08:28:24.422Z,7716
2016-09-29T08:29:24.754Z,7872
2016-09-29T08:30:25.442Z,9024
2016-09-29T08:31:25.526Z,9188
2016-09-29T08:32:25.531Z,9800
2016-09-29T08:33:25.498Z,8356
2016-09-29T08:34:25.321Z,7316
2016-09-29T08:35:24.923Z,8512
2016-09-29T08:36:25.561Z,8940
2016-09-29T08:37:24.953Z,10216
2016-09-29T08:38:25.010Z,8472
2016-09-29T08:39:25.641Z,7568
2016-09-29T08:40:25.360Z,7688
2016-09-29T08:41:25.503Z,8072
2016-09-29T08:42:25.768Z,8324
2016-09-29T08:43:25.455Z,8852
2016-09-29T08:44:25.510Z,9780
2016-09-29T08:45:25.816Z,10500
2016-09-29T08:46:25.852Z,11564
2016-09-29T08:47:25.484Z,12368
2016-09-29T08:48:25.602Z,12596
2016-09-29T08:49:25.702Z,12548
2016-09-29T08:50:25.689Z,12456
2016-09-29T08:51:25.657Z,12204
2016-09-29T08:52:26.033Z,12056
2016-09-29T08:53:26.121Z,11160
2016-09-29T08:54:26.027Z,11408
2016-09-29T08:55:25.782Z,11456
2016-09-29T08:56:25.584Z,11456
2016-09-29T08:57:26.124Z,11564
2016-09-29T08:58:25.933Z,11740
2016-09-29T08:59:26.164Z,11744
2016-09-29T09:00:26.310Z,11256
2016-09-29T09:01:26.212Z,11160
2016-09-29T09:02:25.983Z,10852
2016-09-29T09:03:26.122Z,10464
2016-09-29T09:04:26.318Z,10360
2016-09-29T09:05:26.024Z,10560
2016-09-29T09:06:26.075Z,10800
2016-09-29T09:07:26.395Z,11160
2016-09-29T09:08:26.099Z,11568
2016-09-29T09:09:26.136Z,11888
2016-09-29T09:10:26.471Z,11992
2016-09-29T09:11:25.905Z,11920
2016-09-29T09:12:26.215Z,12296
2016-09-29T09:13:26.615Z,12684
2016-09-29T09:14:26.283Z,12736
2016-09-29T09:15:26.296Z,12820
2016-09-29T09:16:26.314Z,12728
2016-09-29T09:17:26.641Z,12052
2016-09-29T09:18:26.694Z,11904
2016-09-29T09:19:26.392Z,12036
2016-09-29T09:20:26.125Z,11604
2016-09-29T09:21:26.472Z,11480
2016-09-29T09:22:26.477Z,11444
2016-09-29T09:23:26.544Z,11984
2016-09-29T09:24:26.534Z,12400
2016-09-29T09:25:26.613Z,12432
2016-09-29T09:26:26.576Z,12388
2016-09-29T09:27:26.920Z,12396
2016-09-29T09:28:26.956Z,12760
2016-09-29T09:29:26.669Z,13132
2016-09-29T09:30:26.755Z,13296
2016-09-29T09:31:27.035Z,13124
2016-09-29T09:32:26.754Z,12840
2016-09-29T09:33:26.834Z,12500
2016-09-29T09:34:26.790Z,12080
2016-09-29T09:35:26.834Z,11708
2016-09-29T09:36:26.901Z,11556
2016-09-29T09:37:27.209Z,11640
2016-09-29T09:38:27.212Z,11828
2016-09-29T09:39:26.942Z,11612
2016-09-29T09:40:26.644Z,11136
2016-09-29T09:41:27.303Z,10388
2016-09-29T09:42:27.340Z,9684
2016-09-29T09:43:27.241Z,9704
2016-09-29T09:44:27.091Z,8768
2016-09-29T09:45:27.125Z,8076
2016-09-29T09:46:27.137Z,7888
2016-09-29T09:47:27.175Z,8352
2016-09-29T09:48:27.502Z,9456
2016-09-29T09:49:27.020Z,10400
2016-09-29T09:50:27.232Z,11064
2016-09-29T09:51:27.276Z,11276
2016-09-29T09:52:27.593Z,11368
2016-09-29T09:53:27.424Z,11216
2016-09-29T09:54:27.405Z,11792
2016-09-29T09:55:27.382Z,12480
2016-09-29T09:56:27.774Z,13140
2016-09-29T09:57:26.827Z,13952
2016-09-29T09:58:27.791Z,14476
2016-09-29T09:59:27.548Z,14884
2016-09-29T10:00:27.593Z,15044
2016-09-29T10:01:27.871Z,14612
2016-09-29T10:02:27.563Z,14096
2016-09-29T10:03:28.066Z,13244
2016-09-29T10:04:27.629Z,12504
2016-09-29T10:05:27.667Z,12312
2016-09-29T10:06:28.036Z,12092
2016-09-29T10:07:27.723Z,11732
2016-09-29T10:08:27.417Z,11296
2016-09-29T10:09:27.996Z,10796
2016-09-29T10:10:28.298Z,10472
2016-09-29T10:11:28.344Z,9860
2016-09-29T10:12:27.843Z,9272
2016-09-29T10:13:27.993Z,8872
2016-09-29T10:14:28.000Z,7872
2016-09-29T10:15:28.300Z,6940
2016-09-29T10:16:28.014Z,6440
2016-09-29T10:17:27.673Z,6096
2016-09-29T10:18:28.642Z,6008
2016-09-29T10:19:28.045Z,6016
2016-09-29T10:20:28.103Z,6048
2016-09-29T10:21:28.391Z,6432
2016-09-29T10:22:28.451Z,6864
2016-09-29T10:23:28.463Z,7212
2016-09-29T10:24:28.491Z,7380
2016-09-29T10:25:28.597Z,7248
2016-09-29T10:26:28.544Z,7672
2016-09-29T10:27:28.603Z,7740
2016-09-29T10:28:28.615Z,7620
2016-09-29T10:29:28.619Z,7664
2016-09-29T10:30:28.395Z,7640
2016-09-29T10:31:28.670Z,7460
2016-09-29T10:32:28.703Z,7440
2016-09-29T10:33:28.746Z,7260
2016-09-29T10:34:28.513Z,6864
2016-09-29T10:35:28.850Z,5912
2016-09-29T10:36:28.875Z,5576
2016-09-29T10:37:28.522Z,5384
2016-09-29T10:38:28.923Z,5332
2016-09-29T10:39:28.688Z,4908
2016-09-29T10:40:28.909Z,4764
2016-09-29T10:41:28.952Z,4892
2016-09-29T10:42:29.262Z,5380
2016-09-29T10:43:29.004Z,5060
2016-09-29T10:44:28.721Z,5540
2016-09-29T10:45:28.763Z,5724
2016-09-29T10:46:28.784Z,6028
2016-09-29T10:47:29.116Z,6620
2016-09-29T10:48:28.824Z,8320
2016-09-29T10:49:29.163Z,8180
2016-09-29T10:50:28.872Z,13432
2016-09-29T10:51:29.219Z,13636
2016-09-29T10:52:28.625Z,14072
2016-09-29T10:53:28.952Z,13948
2016-09-29T10:54:29.292Z,12212
2016-09-29T10:55:29.321Z,10544
2016-09-29T10:56:29.369Z,11104
2016-09-29T10:57:29.392Z,12892
2016-09-29T10:58:29.092Z,14792
2016-09-29T10:59:29.125Z,12412
2016-09-29T11:00:29.163Z,10492
2016-09-29T11:01:28.881Z,9512
2016-09-29T11:02:29.225Z,10688
2016-09-29T11:03:29.552Z,13676
2016-09-29T11:04:29.573Z,13996
2016-09-29T11:05:29.601Z,12732
2016-09-29T11:06:29.082Z,13864
2016-09-29T11:07:29.332Z,13636
2016-09-29T11:08:29.361Z,12464
2016-09-29T11:09:29.393Z,12328
2016-09-29T11:10:29.773Z,12816
2016-09-29T11:11:29.972Z,12028
2016-09-29T11:12:29.488Z,11248
2016-09-29T11:13:29.641Z,12252
2016-09-29T11:14:29.639Z,12216
2016-09-29T11:15:29.558Z,11656
2016-09-29T11:16:29.660Z,11104
2016-09-29T11:17:30.093Z,11604
2016-09-29T11:18:29.402Z,13028
2016-09-29T11:19:29.682Z,12068
2016-09-29T11:20:30.063Z,10920
2016-09-29T11:21:30.055Z,9064
2016-09-29T11:22:29.876Z,9476
2016-09-29T11:23:30.103Z,10392
2016-09-29T11:24:30.141Z,10680
2016-09-29T11:25:29.840Z,11884
2016-09-29T11:26:30.204Z,11836
2016-09-29T11:27:29.722Z,9220
2016-09-29T11:28:29.921Z,8228
2016-09-29T11:29:30.344Z,10312
2016-09-29T11:30:30.345Z,11872
2016-09-29T11:31:30.073Z,11776
2016-09-29T11:32:30.373Z,10956
2016-09-29T11:33:30.375Z,10056
2016-09-29T11:34:30.457Z,9576
2016-09-29T11:35:30.465Z,11060
2016-09-29T11:36:30.154Z,10496
2016-09-29T11:37:30.226Z,10280
2016-09-29T11:38:30.533Z,10220
2016-09-29T11:39:30.241Z,9904
2016-09-29T11:40:30.305Z,9644
2016-09-29T11:41:30.645Z,8924
2016-09-29T11:42:30.626Z,7456
2016-09-29T11:43:30.662Z,7412
2016-09-29T11:44:30.384Z,9144
2016-09-29T11:45:30.709Z,8748
2016-09-29T11:46:30.429Z,9904
2016-09-29T11:47:30.508Z,10540
2016-09-29T11:48:30.495Z,11740
2016-09-29T11:49:30.534Z,13100
2016-09-29T11:50:30.545Z,13788
2016-09-29T11:51:30.995Z,12928
2016-09-29T11:52:30.603Z,14572
2016-09-29T11:53:30.944Z,14096
2016-09-29T11:54:30.656Z,13944
2016-09-29T11:55:30.357Z,12496
2016-09-29T11:56:31.019Z,12732
2016-09-29T11:57:30.774Z,11840
2016-09-29T11:58:31.245Z,11836
2016-09-29T11:59:30.483Z,12096
2016-09-29T12:00:30.833Z,11832
2016-09-29T12:01:30.550Z,10056
2016-09-29T12:02:31.388Z,12084
2016-09-29T12:03:31.371Z,12128
2016-09-29T12:04:30.648Z,12368
2016-09-29T12:05:31.530Z,11756
2016-09-29T12:06:31.092Z,11852
2016-09-29T12:07:31.442Z,12584
2016-09-29T12:08:31.189Z,11996
2016-09-29T12:09:31.180Z,10716
2016-09-29T12:10:31.544Z,10736
2016-09-29T12:11:31.136Z,10448
2016-09-29T12:12:31.165Z,9816
2016-09-29T12:13:31.536Z,8772
2016-09-29T12:14:31.229Z,10876
2016-09-29T12:15:31.580Z,11512
2016-09-29T12:16:31.299Z,10088
2016-09-29T12:17:31.627Z,9040
2016-09-29T12:18:31.181Z,10112
2016-09-29T12:19:31.736Z,10492
2016-09-29T12:20:31.693Z,11260
2016-09-29T12:21:31.407Z,11120
2016-09-29T12:22:31.450Z,12200
2016-09-29T12:23:31.594Z,10808
2016-09-29T12:24:31.842Z,10520
2016-09-29T12:25:31.839Z,10876
2016-09-29T12:26:31.303Z,10280
2016-09-29T12:27:31.633Z,12024
2016-09-29T12:28:31.602Z,10848
2016-09-29T12:29:31.330Z,9112
2016-09-29T12:30:32.102Z,9968
2016-09-29T12:31:31.711Z,11644
2016-09-29T12:32:32.065Z,9364
2016-09-29T12:33:32.108Z,9632
2016-09-29T12:34:32.099Z,8080
2016-09-29T12:35:32.121Z,9148
2016-09-29T12:36:32.170Z,11040
2016-09-29T12:37:31.868Z,8376
2016-09-29T12:38:32.238Z,10248
2016-09-29T12:39:32.360Z,9812
2016-09-29T12:40:32.267Z,7660
2016-09-29T12:41:32.039Z,8756
2016-09-29T12:42:32.052Z,9068
2016-09-29T12:43:32.437Z,9332
2016-09-29T12:44:32.385Z,8872
2016-09-29T12:45:32.066Z,8516
2016-09-29T12:46:32.133Z,9632
2016-09-29T12:47:32.453Z,10512
2016-09-29T12:48:32.492Z,9300
2016-09-29T12:49:32.502Z,10320
2016-09-29T12:50:32.436Z,7880
2016-09-29T12:51:31.940Z,9692
2016-09-29T12:52:32.588Z,7988
2016-09-29T12:53:32.664Z,7768
2016-09-29T12:54:32.321Z,7080
2016-09-29T12:55:32.807Z,6200
2016-09-29T12:56:32.709Z,6684
2016-09-29T12:57:32.399Z,6644
2016-09-29T12:58:32.440Z,6472
2016-09-29T12:59:32.479Z,7068
2016-09-29T13:00:32.810Z,7580
2016-09-29T13:01:32.825Z,7272
2016-09-29T13:02:32.617Z,6464
2016-09-29T13:03:31.958Z,5440
2016-09-29T13:04:32.628Z,4704
2016-09-29T13:05:32.306Z,4400
2016-09-29T13:06:32.338Z,4684
2016-09-29T13:07:32.985Z,4476
2016-09-29T13:08:32.693Z,5024
2016-09-29T13:09:32.762Z,4496
2016-09-29T13:10:33.068Z,5624
2016-09-29T13:11:33.110Z,5144
2016-09-29T13:12:32.808Z,4928
2016-09-29T13:13:33.196Z,4592
2016-09-29T13:14:33.234Z,4512
2016-09-29T13:15:33.198Z,4108
2016-09-29T13:16:33.289Z,5352
2016-09-29T13:17:33.260Z,5860
2016-09-29T13:18:32.977Z,5956
2016-09-29T13:19:32.997Z,5060
2016-09-29T13:20:33.337Z,6848
2016-09-29T13:21:33.355Z,5428
2016-09-29T13:22:33.407Z,4076
2016-09-29T13:23:33.099Z,4076
2016-09-29T13:24:33.155Z,3584
2016-09-29T13:25:33.470Z,3544
2016-09-29T13:26:33.487Z,4280
2016-09-29T13:27:33.219Z,4524
2016-09-29T13:28:33.239Z,4116
2016-09-29T13:29:33.578Z,4900
2016-09-29T13:30:33.285Z,4700
2016-09-29T13:31:33.372Z,5052
2016-09-29T13:32:33.654Z,4040
2016-09-29T13:33:33.467Z,4556
2016-09-29T13:34:33.696Z,4524
2016-09-29T13:35:33.417Z,4440
2016-09-29T13:36:33.158Z,5092
2016-09-29T13:37:33.462Z,3468
2016-09-29T13:38:33.493Z,3032
2016-09-29T13:39:33.835Z,4364
2016-09-29T13:40:33.848Z,3668
2016-09-29T13:41:33.886Z,3132
2016-09-29T13:42:33.928Z,3484
2016-09-29T13:43:33.986Z,3740
2016-09-29T13:44:33.717Z,4112
2016-09-29T13:45:33.753Z,3608